Time;durP1;ratioP1;P1;durP2;ratioP2;P2;SDS_P1;SDS_P2;PMS_P1;PMS_P2;Temp;Humidity;BMP_temperature;BMP_pressure;BME280_temperature;BME280_humidity;BME280_pressure;Samples;Min_cycle;Max_cycle;Signal;HPM_P1;HPM_P2
2021/01/02 00:03:01;;;;;;;4.92;3.33;;;;;;;3.01;79.42;100104.95;1751500;81;21151;-76
2021/01/02 00:05:32;;;;;;;5.78;3.02;;;;;;;2.94;79.28;100112.37;1751564;81;21115;-76
2021/01/02 00:08:17;;;;;;;6.10;3.60;;;;;;;2.96;80.69;100117.12;1751590;81;21237;-76
2021/01/02 00:11:30;;;;;;;6.00;3.50;;;;;;;2.93;79.24;100122.36;1751609;81;21163;-77
2021/01/02 00:14:25;;;;;;;6.42;3.37;;;;;;;2.93;79.65;100125.82;1751632;81;21131;-76
2021/01/02 00:17:24;;;;;;;5.50;3.55;;;;;;;2.94;80.09;100128.87;1720634;82;21273;-75
2021/01/02 00:20:27;;;;;;;6.37;3.80;;;;;;;2.99;80.79;100135.75;1721642;83;21166;-74
2021/01/02 00:22:56;;;;;;;6.22;3.80;;;;;;;2.99;80.39;100139.25;1728752;81;22248;-76
2021/01/02 00:25:26;;;;;;;5.22;3.15;;;;;;;2.94;78.99;100142.28;1752458;81;21789;-76
2021/01/02 00:28:18;;;;;;;4.33;2.85;;;;;;;2.96;79.22;100135.78;1759742;81;21214;-74
2021/01/02 00:31:04;;;;;;;5.33;2.70;;;;;;;2.99;79.34;100140.95;1760031;81;21506;-76
2021/01/02 00:34:02;;;;;;;6.87;3.67;;;;;;;3.00;79.86;100144.86;1759921;81;21162;-75
2021/01/02 00:36:51;;;;;;;4.62;2.77;;;;;;;3.01;79.73;100154.38;1759990;81;21199;-74
2021/01/02 00:39:32;;;;;;;4.97;2.80;;;;;;;3.01;79.26;100149.17;1759502;81;21214;-75
2021/01/02 00:42:01;;;;;;;4.58;2.83;;;;;;;3.05;79.08;100153.94;1760040;81;21201;-77
2021/01/02 00:44:31;;;;;;;4.53;3.05;;;;;;;3.05;79.05;100157.84;1760207;81;21190;-79
2021/01/02 00:46:59;;;;;;;6.00;3.15;;;;;;;3.07;79.33;100163.91;1760007;81;21171;-79
2021/01/02 00:49:28;;;;;;;5.20;2.90;;;;;;;3.06;79.42;100173.45;1760032;81;21356;-77
2021/01/02 00:52:04;;;;;;;4.97;3.00;;;;;;;3.07;79.33;100166.51;1760079;81;21610;-76
2021/01/02 00:54:41;;;;;;;5.30;3.42;;;;;;;3.06;79.65;100178.66;1756395;81;21135;-76
2021/01/02 00:57:14;;;;;;;5.97;3.50;;;;;;;3.07;79.45;100183.42;1756062;81;21178;-78
2021/01/02 01:00:02;;;;;;;8.33;4.30;;;;;;;3.07;78.97;100190.78;1760089;81;21182;-78
2021/01/02 01:02:58;;;;;;;7.83;3.87;;;;;;;3.07;79.11;100187.32;1759957;81;21529;-79
2021/01/02 01:05:26;;;;;;;7.67;4.10;;;;;;;3.08;79.32;100192.53;1759992;81;22202;-78
2021/01/02 01:07:54;;;;;;;6.47;3.92;;;;;;;3.09;80.03;100191.64;1760135;81;21202;-79
2021/01/02 01:10:24;;;;;;;4.85;3.02;;;;;;;3.04;80.18;100175.20;1760048;81;21170;-78
2021/01/02 01:13:01;;;;;;;7.03;3.77;;;;;;;3.10;80.36;100185.55;1760130;81;21194;-79
2021/01/02 01:15:31;;;;;;;7.60;4.70;;;;;;;3.13;80.55;100184.25;1759794;81;21173;-79
2021/01/02 01:18:38;;;;;;;5.78;3.55;;;;;;;3.11;80.10;100192.50;1759911;81;21189;-78
2021/01/02 01:21:11;;;;;;;7.62;4.40;;;;;;;3.08;80.67;100191.23;1760111;81;21162;-76
2021/01/02 01:24:13;;;;;;;;;;;;;;;;;;;;;
2021/01/02 01:27:04;;;;;;;8.77;4.80;;;;;;;3.04;79.59;100193.41;1826991;77;22738;-76
2021/01/02 01:29:57;;;;;;;8.98;4.65;;;;;;;2.94;80.16;100191.71;1791577;78;21162;-75
2021/01/02 01:32:28;;;;;;;8.45;4.67;;;;;;;2.95;80.76;100198.66;1791432;80;21433;-75
2021/01/02 01:35:00;;;;;;;10.18;5.20;;;;;;;2.95;80.59;100201.27;1791805;80;21174;-75
2021/01/02 01:37:33;;;;;;;10.43;5.90;;;;;;;2.96;80.88;100202.98;1791530;78;21225;-74
2021/01/02 01:40:01;;;;;;;10.35;5.83;;;;;;;2.98;80.65;100206.44;1791269;80;21129;-76
2021/01/02 01:42:44;;;;;;;11.28;5.97;;;;;;;2.96;80.69;100206.87;1791556;78;21614;-74
2021/01/02 01:45:39;;;;;;;9.18;5.65;;;;;;;2.93;81.33;100216.01;1791567;80;22096;-76
2021/01/02 01:48:09;;;;;;;12.85;5.92;;;;;;;2.93;81.33;100216.01;1789900;80;21676;-76
2021/01/02 01:51:18;;;;;;;10.38;5.42;;;;;;;2.97;81.32;100222.94;1791495;80;21231;-76
2021/01/02 01:54:00;;;;;;;11.63;6.35;;;;;;;2.98;81.66;100225.95;1791524;80;21141;-75
2021/01/02 01:56:36;;;;;;;12.35;6.87;;;;;;;2.97;80.25;100228.55;1763671;80;21162;-75
2021/01/02 01:59:24;;;;;;;11.95;5.97;;;;;;;2.96;80.27;100230.30;1791485;80;21328;-77
2021/01/02 02:01:56;;;;;;;12.70;5.75;;;;;;;2.93;78.72;100238.98;1761007;80;21158;-75
2021/01/02 02:05:06;;;;;;;11.35;5.92;;;;;;;2.91;79.56;100241.16;1791397;80;21225;-75
2021/01/02 02:08:03;;;;;;;14.60;6.97;;;;;;;2.90;78.92;100244.65;1791358;80;21189;-75
2021/01/02 02:10:48;;;;;;;9.28;5.30;;;;;;;2.88;78.28;100248.98;1791493;78;21460;-74
2021/01/02 02:13:23;;;;;;;9.65;5.10;;;;;;;2.85;78.16;100256.78;1791427;80;21212;-75
2021/01/02 02:15:56;;;;;;;11.30;4.87;;;;;;;2.82;78.63;100269.37;1761111;80;22035;-75
2021/01/02 02:18:29;;;;;;;10.70;5.28;;;;;;;2.80;77.94;100266.34;1790735;80;21560;-74
2021/01/02 02:21:01;;;;;;;10.65;5.97;;;;;;;2.75;77.70;100270.70;1791437;80;21121;-75
2021/01/02 02:23:44;;;;;;;11.15;5.33;;;;;;;2.71;77.07;100270.72;1791537;80;21162;-74
2021/01/02 02:26:32;;;;;;;13.70;5.92;;;;;;;2.71;76.89;100275.03;1788322;78;21349;-73
2021/01/02 02:29:18;;;;;;;9.95;5.40;;;;;;;2.68;76.99;100270.70;1787071;78;21098;-74
2021/01/02 02:31:45;;;;;;;8.63;4.50;;;;;;;2.68;77.44;100275.91;1787075;80;21134;-74
2021/01/02 02:34:14;;;;;;;11.03;5.60;;;;;;;2.70;77.69;100272.02;1786919;80;21126;-75
2021/01/02 02:36:42;;;;;;;18.40;7.05;;;;;;;2.68;77.63;100275.91;1786783;78;21150;-73
2021/01/02 02:39:13;;;;;;;11.03;5.70;;;;;;;2.69;77.55;100278.95;1786515;80;21274;-74
2021/01/02 02:41:54;;;;;;;10.35;5.12;;;;;;;2.69;77.96;100287.17;1786404;80;21162;-74
2021/01/02 02:44:30;;;;;;;9.48;5.17;;;;;;;2.69;78.71;100291.96;1785769;80;21594;-74
2021/01/02 02:47:00;;;;;;;11.95;6.03;;;;;;;2.66;78.05;100289.78;1766975;80;21157;-73
2021/01/02 02:49:35;;;;;;;10.48;5.80;;;;;;;2.64;77.95;100292.38;1764758;81;21189;-74
2021/01/02 02:52:33;;;;;;;14.35;6.28;;;;;;;2.63;77.78;100295.86;1764861;81;21198;-73
2021/01/02 02:55:02;;;;;;;11.30;6.30;;;;;;;2.59;77.46;100304.53;1764642;81;21161;-73
2021/01/02 02:57:31;;;;;;;11.63;5.95;;;;;;;2.54;78.05;100311.48;1759869;80;21202;-74
2021/01/02 02:59:58;;;;;;;15.15;7.25;;;;;;;2.52;78.54;100314.52;1764674;81;21687;-76
2021/01/02 03:02:26;;;;;;;12.75;6.70;;;;;;;2.48;78.74;100319.27;1764863;81;21356;-75
2021/01/02 03:04:54;;;;;;;10.93;6.30;;;;;;;2.45;79.23;100321.89;1764750;81;21377;-74
2021/01/02 03:07:22;;;;;;;14.87;6.87;;;;;;;2.45;79.34;100319.29;1734713;81;21481;-75
2021/01/02 03:09:50;;;;;;;14.20;6.95;;;;;;;2.41;78.79;100333.14;1764634;79;21564;-75
2021/01/02 03:12:18;;;;;;;13.98;7.08;;;;;;;2.39;79.19;100327.08;1764597;81;21608;-75
2021/01/02 03:14:47;;;;;;;14.40;7.17;;;;;;;2.40;79.15;100328.83;1764693;79;21142;-75
2021/01/02 03:17:14;;;;;;;14.87;6.80;;;;;;;2.43;79.52;100336.61;1764558;81;21292;-74
2021/01/02 03:19:42;;;;;;;14.15;7.12;;;;;;;2.43;79.21;100335.31;1764604;81;21991;-74
2021/01/02 03:22:09;;;;;;;16.05;8.00;;;;;;;2.41;78.56;100333.14;1764688;81;21130;-77
2021/01/02 03:24:37;;;;;;;13.60;7.05;;;;;;;2.37;78.41;100341.80;1767859;79;21062;-87
2021/01/02 03:27:05;;;;;;;12.70;6.87;;;;;;;2.36;77.42;100350.48;1776419;80;21963;-86
2021/01/02 03:29:35;;;;;;;;;;;;;;;2.34;77.47;100348.31;1779612;79;21434;-85
2021/01/02 03:32:04;;;;;;;15.63;8.03;;;;;;;2.30;77.63;100358.72;1773786;81;20267;-82
2021/01/02 03:34:37;;;;;;;13.20;7.37;;;;;;;2.25;77.68;100357.83;1772217;81;21662;-80
2021/01/02 03:37:04;;;;;;;11.12;6.67;;;;;;;2.20;76.96;100364.77;1771769;81;21132;-82
2021/01/02 03:39:33;;;;;;;10.93;6.12;;;;;;;2.19;77.33;100364.34;1772403;80;21749;-83
2021/01/02 03:42:04;;;;;;;11.43;6.05;;;;;;;2.18;77.72;100369.08;1772652;81;22322;-81
2021/01/02 03:44:32;;;;;;;14.53;6.28;;;;;;;2.16;77.67;100369.52;1739633;81;21231;-78
2021/01/02 03:47:10;;;;;;;10.60;5.90;;;;;;;2.14;78.00;100381.66;1779937;80;21562;-79
2021/01/02 03:49:37;;;;;;;10.88;6.35;;;;;;;2.13;78.26;100370.82;1751901;80;21197;-76
2021/01/02 03:52:06;;;;;;;12.25;6.70;;;;;;;2.14;77.92;100382.97;1780586;80;21570;-77
2021/01/02 03:54:35;;;;;;;9.80;5.65;;;;;;;2.13;78.06;100377.31;1780495;80;22119;-76
2021/01/02 03:57:02;;;;;;;10.93;6.10;;;;;;;2.12;77.57;100373.00;1780428;80;21185;-76
2021/01/02 03:59:30;;;;;;;12.75;6.50;;;;;;;2.09;77.45;100371.67;1780560;80;21593;-76
2021/01/02 04:01:59;;;;;;;15.63;7.45;;;;;;;2.05;77.47;100382.95;1780550;80;21218;-75
2021/01/02 04:04:27;;;;;;;14.05;7.47;;;;;;;1.96;76.47;100393.32;1780549;80;21198;-75
2021/01/02 04:06:54;;;;;;;13.18;7.30;;;;;;;1.85;76.37;100399.34;1780578;80;21269;-76
2021/01/02 04:09:22;;;;;;;12.25;6.67;;;;;;;1.78;76.84;100398.89;1780374;80;21202;-75
2021/01/02 04:11:51;;;;;;;11.85;6.78;;;;;;;1.73;77.33;100402.34;1780646;80;21118;-74
2021/01/02 04:14:19;;;;;;;12.53;6.72;;;;;;;1.71;78.14;100411.42;1780463;80;21186;-75
2021/01/02 04:16:47;;;;;;;15.45;7.45;;;;;;;1.70;78.39;100417.89;1780632;80;21150;-75
2021/01/02 04:19:15;;;;;;;13.13;6.55;;;;;;;1.67;78.45;100416.16;1780461;80;21272;-74
2021/01/02 04:21:46;;;;;;;12.37;7.03;;;;;;;1.60;78.35;100419.59;1780540;80;21711;-75
2021/01/02 04:24:13;;;;;;;17.48;7.80;;;;;;;1.58;78.92;100426.50;1780704;80;21569;-77
2021/01/02 04:26:41;;;;;;;16.90;8.23;;;;;;;1.53;79.00;100428.22;1787728;79;21612;-77
2021/01/02 04:29:08;;;;;;;15.13;7.70;;;;;;;1.48;78.46;100441.61;1796989;78;21149;-77
2021/01/02 04:31:39;;;;;;;15.75;7.95;;;;;;;1.41;78.56;100442.00;1796863;79;21265;-79
2021/01/02 04:34:08;;;;;;;12.90;7.13;;;;;;;1.36;78.94;100452.36;1797210;79;21217;-77
2021/01/02 04:36:36;;;;;;;14.07;7.85;;;;;;;1.26;78.53;100450.55;1797109;78;21214;-76
2021/01/02 04:39:05;;;;;;;16.60;8.18;;;;;;;1.20;78.75;100453.13;1797374;79;21088;-76
2021/01/02 04:41:33;;;;;;;13.95;8.18;;;;;;;1.07;78.76;100457.36;1797063;78;21221;-75
2021/01/02 04:46:40;;;;;;;15.27;8.23;;;;;;;0.91;79.45;100458.97;1809988;77;22771;-76
2021/01/02 04:49:08;;;;;;;14.43;7.83;;;;;;;0.77;79.30;100468.38;1718137;83;21106;-76
2021/01/02 04:51:35;;;;;;;17.65;9.35;;;;;;;0.69;79.52;100476.50;1748174;82;21407;-75
2021/01/02 04:54:05;;;;;;;17.35;9.03;;;;;;;0.59;79.80;100484.63;1729980;82;21605;-75
2021/01/02 04:56:34;;;;;;;19.02;9.30;;;;;;;0.52;80.21;100488.02;1755044;80;21328;-75
2021/01/02 04:59:07;;;;;;;15.15;8.48;;;;;;;0.45;80.38;100490.97;1751666;81;21210;-76
2021/01/02 05:01:40;;;;;;;14.63;7.55;;;;;;;0.43;80.74;100493.97;1751602;81;21162;-75
2021/01/02 05:04:08;;;;;;;18.65;8.88;;;;;;;0.42;81.59;100498.73;1751651;81;21475;-75
2021/01/02 05:06:36;;;;;;;17.27;8.60;;;;;;;0.40;81.72;100493.95;1751608;81;21170;-75
2021/01/02 05:09:07;;;;;;;18.55;9.28;;;;;;;0.41;81.99;100503.45;1751629;80;21175;-78
2021/01/02 05:11:37;;;;;;;17.62;9.83;;;;;;;0.39;81.93;100503.86;1751841;81;21170;-76
2021/01/02 05:14:05;;;;;;;20.43;10.93;;;;;;;0.40;82.02;100505.18;1751691;80;21206;-77
2021/01/02 05:16:38;;;;;;;19.40;9.73;;;;;;;0.42;82.14;100497.43;1751690;81;21251;-76
2021/01/02 05:19:11;;;;;;;22.85;9.38;;;;;;;0.42;82.25;100500.02;1751651;81;21135;-76
2021/01/02 05:21:48;;;;;;;13.88;7.72;;;;;;;0.43;82.53;100509.95;1751829;81;21646;-76
2021/01/02 05:24:20;;;;;;;17.77;8.43;;;;;;;0.40;82.34;100512.09;1751694;80;21158;-77
2021/01/02 05:26:59;;;;;;;19.52;9.55;;;;;;;0.39;82.21;100515.52;1751852;81;21159;-76
2021/01/02 05:29:29;;;;;;;17.15;9.20;;;;;;;0.38;82.15;100521.56;1751820;81;22307;-75
2021/01/02 05:31:59;;;;;;;15.58;8.80;;;;;;;0.38;82.51;100526.75;1751604;81;21198;-78
2021/01/02 05:34:28;;;;;;;18.00;9.18;;;;;;;0.38;82.56;100525.45;1751859;80;21170;-77
2021/01/02 05:37:08;;;;;;;16.82;8.70;;;;;;;0.39;83.02;100536.24;1751881;81;21183;-77
2021/01/02 05:39:43;;;;;;;16.00;8.70;;;;;;;0.38;82.82;100539.70;1752288;81;21677;-77
2021/01/02 05:42:11;;;;;;;19.30;9.93;;;;;;;0.43;83.12;100546.23;1754960;80;22328;-75
2021/01/02 05:44:40;;;;;;;18.32;10.48;;;;;;;0.44;82.68;100552.73;1755036;81;21170;-76
2021/01/02 05:47:13;;;;;;;18.23;9.73;;;;;;;0.46;82.90;100554.92;1745011;82;21113;-79
2021/01/02 05:49:49;;;;;;;18.62;9.83;;;;;;;0.47;83.10;100557.94;1745519;82;21239;-80
2021/01/02 05:52:18;;;;;;;15.95;9.23;;;;;;;0.50;82.90;100565.73;1745539;82;21535;-80
2021/01/02 05:54:50;;;;;;;;;;;;;;;0.53;82.97;100571.38;1748164;81;21225;-80
2021/01/02 05:57:28;;;;;;;16.95;10.13;;;;;;;0.53;83.14;100573.56;1745214;82;20179;-79
2021/01/02 05:59:57;;;;;;;18.67;9.65;;;;;;;0.51;83.15;100572.67;1745072;81;21108;-81
2021/01/02 06:02:29;;;;;;;15.53;8.65;;;;;;;0.52;83.33;100582.18;1745081;81;21132;-80
2021/01/02 06:05:08;;;;;;;17.60;9.58;;;;;;;0.55;83.61;100587.41;1745173;82;21068;-81
2021/01/02 06:07:39;;;;;;;17.92;9.70;;;;;;;0.53;83.36;100600.78;1744410;82;21450;-74
2021/01/02 06:10:09;;;;;;;16.62;9.40;;;;;;;0.52;83.18;100596.86;1742002;81;21131;-76
2021/01/02 06:12:39;;;;;;;18.80;9.95;;;;;;;0.51;83.09;100603.77;1740287;81;21199;-76
2021/01/02 06:15:14;;;;;;;21.15;11.18;;;;;;;0.52;82.90;100608.53;1740432;82;21175;-79
2021/01/02 06:17:48;;;;;;;20.17;10.23;;;;;;;0.51;82.95;100603.77;1740874;82;21168;-78
2021/01/02 06:20:17;;;;;;;23.92;10.98;;;;;;;0.48;82.60;100599.83;1740895;81;21208;-81
2021/01/02 06:22:45;;;;;;;17.42;10.00;;;;;;;0.48;82.48;100611.49;1740703;81;21166;-79
2021/01/02 06:25:14;;;;;;;22.93;11.97;;;;;;;0.46;82.17;100618.41;1740458;82;21211;-79
2021/01/02 06:27:44;;;;;;;23.25;12.07;;;;;;;0.41;82.25;100626.13;1740900;82;21156;-79
2021/01/02 06:30:19;;;;;;;21.52;10.72;;;;;;;0.41;82.27;100630.41;1740521;82;21139;-76
2021/01/02 06:32:48;;;;;;;21.80;11.00;;;;;;;0.47;82.53;100633.52;1740325;82;21211;-74
2021/01/02 06:35:19;;;;;;;21.10;10.72;;;;;;;0.48;82.12;100630.06;1740210;81;21167;-74
2021/01/02 06:37:55;;;;;;;20.00;10.53;;;;;;;0.51;82.32;100640.49;1740243;82;21199;-75
2021/01/02 06:40:25;;;;;;;22.10;11.15;;;;;;;0.50;81.56;100643.48;1740225;81;21830;-72
2021/01/02 06:42:57;;;;;;;25.72;12.25;;;;;;;0.54;81.96;100637.92;1741843;82;21159;-73
2021/01/02 06:46:33;;;;;;;23.23;12.07;;;;;;;0.58;81.90;100631.50;1742495;76;22816;-61
2021/01/02 06:49:32;;;;;;;26.10;12.82;;;;;;;0.51;81.61;100642.66;1660202;86;21182;-63
2021/01/02 06:52:01;;;;;;;26.93;13.05;;;;;;;0.54;81.53;100647.86;1659847;86;21411;-60
2021/01/02 06:54:28;;;;;;;26.50;11.93;;;;;;;0.54;80.90;100660.81;1668119;84;22187;-62
2021/01/02 06:57:04;;;;;;;27.82;13.98;;;;;;;0.56;81.13;100657.82;1666681;86;21663;-60
2021/01/02 06:59:32;;;;;;;23.67;12.63;;;;;;;0.56;81.05;100664.73;1666618;86;21211;-62
2021/01/02 07:02:00;;;;;;;22.17;12.13;;;;;;;0.57;80.75;100667.33;1666559;86;21164;-63
2021/01/02 07:04:35;;;;;;;22.37;11.83;;;;;;;0.59;80.85;100664.33;1666511;86;21571;-61
2021/01/02 07:07:05;;;;;;;26.52;12.35;;;;;;;0.62;81.22;100664.39;1666557;84;21212;-62
2021/01/02 07:09:34;;;;;;;19.35;10.15;;;;;;;0.69;81.13;100667.03;1666678;84;21620;-63
2021/01/02 07:12:13;;;;;;;22.87;12.43;;;;;;;0.72;81.25;100674.87;1666644;86;21196;-62
2021/01/02 07:14:41;;;;;;;20.75;10.88;;;;;;;0.75;81.00;100673.59;1666785;84;21644;-60
2021/01/02 07:17:12;;;;;;;24.47;11.57;;;;;;;0.76;81.44;100680.51;1666568;86;21240;-63
2021/01/02 07:19:48;;;;;;;22.22;10.80;;;;;;;0.82;80.99;100678.00;1666748;86;21607;-62
2021/01/02 07:22:21;;;;;;;26.45;12.78;;;;;;;0.85;80.52;100685.80;1666736;84;21256;-64
2021/01/02 07:25:08;;;;;;;27.27;13.28;;;;;;;0.87;80.14;100686.69;1640908;87;21238;-64
2021/01/02 07:27:37;;;;;;;24.52;13.18;;;;;;;0.89;80.10;100688.88;1640811;86;21611;-64
2021/01/02 07:30:12;;;;;;;26.42;12.45;;;;;;;0.93;79.85;100695.84;1640874;87;21398;-65
2021/01/02 07:32:43;;;;;;;22.80;12.37;;;;;;;0.95;80.01;100690.25;1645193;86;21654;-64
2021/01/02 07:35:13;;;;;;;22.75;11.45;;;;;;;0.99;80.17;100689.44;1666463;84;21236;-65
2021/01/02 07:37:43;;;;;;;21.45;10.80;;;;;;;1.05;80.01;100698.56;1666586;86;21252;-63
2021/01/02 07:40:15;;;;;;;24.12;12.00;;;;;;;1.12;80.43;100706.42;1666493;84;21235;-64
2021/01/02 07:42:51;;;;;;;20.80;11.30;;;;;;;1.14;79.71;100710.77;1666815;84;22306;-66
2021/01/02 07:45:25;;;;;;;22.65;11.95;;;;;;;1.20;80.73;100704.80;1666689;84;21244;-65
2021/01/02 07:47:55;;;;;;;23.30;11.03;;;;;;;1.26;79.78;100716.52;1693044;83;21213;-65
2021/01/02 07:50:26;;;;;;;24.20;12.07;;;;;;;1.34;81.09;100717.91;1662734;86;21640;-65
2021/01/02 07:53:04;;;;;;;23.42;10.20;;;;;;;1.36;80.09;100718.36;1688206;83;21279;-62
2021/01/02 07:55:34;;;;;;;24.30;12.15;;;;;;;1.35;78.71;100724.83;1707579;80;21384;-77
2021/01/02 07:58:06;;;;;;;22.25;11.30;;;;;;;1.33;79.27;100729.98;1712903;83;21203;-74
2021/01/02 08:00:34;;;;;;;21.30;11.12;;;;;;;1.35;79.37;100746.45;1701534;83;21190;-76
2021/01/02 08:03:06;;;;;;;22.77;12.65;;;;;;;1.38;79.57;100746.50;1706877;83;21372;-75
2021/01/02 08:05:33;;;;;;;20.65;11.22;;;;;;;1.44;79.98;100754.33;1732667;81;21171;-74
2021/01/02 08:08:05;;;;;;;20.40;10.38;;;;;;;1.52;80.16;100758.72;1757457;81;21390;-76
2021/01/02 08:10:33;;;;;;;20.27;10.53;;;;;;;1.57;79.30;100764.86;1664843;79;21731;-64
2021/01/02 08:13:01;;;;;;;23.12;11.65;;;;;;;1.60;79.83;100757.09;1684475;83;21192;-65
2021/01/02 08:18:12;;;;;;;22.60;12.10;;;;;;;1.75;79.27;100749.85;1888445;76;22652;-68
2021/01/02 08:20:40;;;;;;;25.50;13.03;;;;;;;1.74;78.81;100752.89;1852388;77;21146;-65
2021/01/02 08:25:51;;;;;;;26.97;12.95;;;;;;;1.72;78.77;100767.58;1771635;80;21122;-73
2021/01/02 08:28:19;;;;;;;23.80;12.55;;;;;;;1.74;78.94;100770.20;1725498;81;21190;-76
2021/01/02 08:30:46;;;;;;;21.35;11.12;;;;;;;1.76;78.63;100773.25;1754699;81;21834;-73
2021/01/02 08:33:15;;;;;;;23.73;12.07;;;;;;;1.80;78.68;100768.97;1754722;81;21620;-74
2021/01/02 08:35:43;;;;;;;23.05;12.13;;;;;;;1.81;78.92;100780.64;1702395;81;22823;-74
2021/01/02 08:38:13;;;;;;;22.52;11.30;;;;;;;1.85;78.49;100773.33;1785598;80;21154;-74
2021/01/02 08:43:26;;;;;;;25.23;12.60;;;;;;;2.03;79.07;100776.95;1816356;78;21201;-65
2021/01/02 08:46:01;;;;;;;27.90;12.25;;;;;;;2.08;78.88;100776.56;1801784;78;21198;-65
2021/01/02 08:48:28;;;;;;;21.33;11.65;;;;;;;2.15;78.45;100780.08;1815457;78;22662;-65
2021/01/02 08:50:56;;;;;;;24.32;11.73;;;;;;;2.25;78.15;100770.17;1806646;78;21111;-64
2021/01/02 08:53:26;;;;;;;25.52;11.55;;;;;;;2.34;78.10;100774.14;1785458;80;21142;-63
2021/01/02 08:55:54;;;;;;;25.63;12.33;;;;;;;2.44;77.47;100771.16;1788266;80;21198;-65
2021/01/02 08:58:33;;;;;;;23.83;11.90;;;;;;;2.56;77.90;100772.56;1757333;80;21629;-75
2021/01/02 09:01:01;;;;;;;22.98;11.73;;;;;;;2.70;77.06;100774.80;1747633;81;21274;-75
2021/01/02 09:03:29;;;;;;;22.48;10.68;;;;;;;2.81;76.39;100775.31;1744776;81;21175;-75
2021/01/02 09:05:57;;;;;;;22.32;10.85;;;;;;;2.84;76.32;100774.02;1745159;81;21169;-75
2021/01/02 09:08:27;;;;;;;21.87;11.53;;;;;;;2.89;76.63;100778.80;1744632;81;21200;-74
2021/01/02 09:10:56;;;;;;;21.75;11.05;;;;;;;2.88;76.09;100778.38;1741313;81;21168;-76
2021/01/02 09:13:24;;;;;;;21.52;10.98;;;;;;;2.95;76.37;100776.23;1760639;77;21591;-65
2021/01/02 09:16:02;;;;;;;21.55;11.12;;;;;;;3.02;75.64;100785.80;1772281;80;21682;-65
2021/01/02 09:18:36;;;;;;;20.48;11.08;;;;;;;3.07;75.45;100791.89;1761288;80;21187;-64
2021/01/02 09:21:15;;;;;;;22.93;12.47;;;;;;;3.15;75.38;100790.20;1757639;81;21180;-66
2021/01/02 09:23:45;;;;;;;26.30;11.85;;;;;;;3.29;75.11;100794.16;1757408;80;21183;-66
2021/01/02 09:29:14;;;;;;;21.50;11.70;;;;;;;3.68;73.68;100792.52;1806836;76;22784;-65
2021/01/02 09:31:42;;;;;;;21.02;11.30;;;;;;;3.60;72.97;100789.46;1783639;79;21175;-65
2021/01/02 09:34:10;;;;;;;21.23;11.15;;;;;;;3.93;74.00;100785.61;1726059;82;21718;-65
2021/01/02 09:36:39;;;;;;;23.73;12.15;;;;;;;4.11;72.47;100789.06;1723735;82;21257;-65
2021/01/02 09:39:07;;;;;;;17.07;9.80;;;;;;;4.44;71.45;100787.30;1721050;82;21198;-65
2021/01/02 09:41:35;;;;;;;23.42;11.45;;;;;;;4.44;71.45;100787.30;1719840;82;21816;-66
2021/01/02 09:44:03;;;;;;;19.50;10.90;;;;;;;4.99;68.30;100778.92;1717985;82;21173;-65
2021/01/02 09:46:33;;;;;;;23.02;12.40;;;;;;;5.15;67.88;100782.30;1722254;82;21238;-65
2021/01/02 09:49:01;;;;;;;24.18;11.93;;;;;;;5.38;66.46;100778.72;1716565;82;21408;-64
2021/01/02 09:51:29;;;;;;;23.65;12.20;;;;;;;5.35;66.24;100772.22;1725475;82;21185;-66
2021/01/02 09:53:57;;;;;;;19.92;11.83;;;;;;;5.56;65.06;100778.61;1728161;82;21449;-66
2021/01/02 09:56:25;;;;;;;21.90;13.10;;;;;;;5.50;65.67;100782.59;1729888;82;21194;-64
2021/01/02 09:58:57;;;;;;;25.30;12.95;;;;;;;5.96;65.56;100782.31;1722001;82;21386;-65
2021/01/02 10:01:24;;;;;;;20.50;12.50;;;;;;;6.71;62.62;100780.74;1733640;82;21213;-66
2021/01/02 10:03:52;;;;;;;25.02;13.68;;;;;;;7.43;60.79;100781.61;1723864;77;21291;-75
2021/01/02 10:06:20;;;;;;;27.25;14.68;;;;;;;8.13;58.63;100787.57;1701662;83;22139;-76
2021/01/02 10:08:48;;;;;;;23.57;12.50;;;;;;;8.79;57.82;100789.06;1711927;82;21161;-74
2021/01/02 10:11:16;;;;;;;26.93;13.35;;;;;;;9.44;55.46;100784.20;1698308;82;21384;-75
2021/01/02 10:13:45;;;;;;;28.27;14.47;;;;;;;9.84;52.93;100781.11;1702397;83;21653;-75
2021/01/02 10:16:17;;;;;;;29.25;15.55;;;;;;;10.05;51.51;100777.09;1696487;83;21594;-75
2021/01/02 11:01:50;;;;;;;37.98;17.23;;;;;;;10.43;49.56;100777.95;1727176;79;74507;-70
2021/01/02 11:04:19;;;;;;;35.73;15.30;;;;;;;10.47;48.95;100773.02;1733366;82;21588;-70
2021/01/02 11:06:49;;;;;;;37.85;16.87;;;;;;;10.57;48.52;100781.08;1731282;82;21804;-69
2021/01/02 11:09:17;;;;;;;35.98;15.72;;;;;;;10.66;48.63;100781.29;1725087;82;21118;-70
2021/01/02 11:11:45;;;;;;;39.55;16.02;;;;;;;10.78;48.87;100780.09;1728347;82;22191;-71
2021/01/02 11:14:13;;;;;;;37.98;14.78;;;;;;;11.03;48.13;100769.27;1725873;82;21150;-70
2021/01/02 11:16:43;;;;;;;44.10;15.63;;;;;;;10.99;48.50;100774.20;1736454;82;21162;-71
2021/01/02 11:19:19;;;;;;;40.38;15.32;;;;;;;10.70;47.88;100777.67;1728489;82;21124;-70
2021/01/02 11:21:47;;;;;;;44.85;16.05;;;;;;;10.44;49.23;100782.30;1678098;83;21122;-70
2021/01/02 11:24:18;;;;;;;40.60;15.18;;;;;;;10.34;50.70;100782.13;1716347;82;21303;-70
2021/01/02 11:26:49;;;;;;;34.20;14.75;;;;;;;10.47;49.10;100783.55;1717337;82;23330;-70
2021/01/02 11:29:19;;;;;;;34.48;14.55;;;;;;;10.48;48.11;100782.63;1700728;82;21141;-70
2021/01/02 11:31:47;;;;;;;28.07;13.72;;;;;;;10.22;48.55;100776.23;1675509;83;21102;-70
2021/01/02 11:34:16;;;;;;;32.75;14.07;;;;;;;10.11;49.19;100782.22;1722985;82;21126;-70
2021/01/02 11:36:58;;;;;;;29.45;14.15;;;;;;;10.14;49.78;100789.17;1696733;83;21218;-70
2021/01/02 11:39:25;;;;;;;29.98;14.03;;;;;;;10.05;48.88;100788.94;1727502;82;21133;-64
2021/01/02 11:41:53;;;;;;;34.05;15.08;;;;;;;10.28;49.65;100781.79;1700746;83;21130;-64
2021/01/02 11:44:23;;;;;;;24.87;13.30;;;;;;;10.56;49.05;100788.58;1670827;85;21156;-66
2021/01/02 11:46:53;;;;;;;21.30;13.03;;;;;;;10.58;48.62;100785.87;1727789;83;21101;-65
2021/01/02 11:49:25;;;;;;;27.17;13.93;;;;;;;10.37;49.59;100783.36;1722149;82;21198;-66
2021/01/02 11:52:05;;;;;;;22.93;13.18;;;;;;;10.40;49.38;100788.53;1868174;75;28166;-66
2021/01/02 11:54:34;;;;;;;28.80;13.95;;;;;;;10.49;48.55;100796.23;1858767;77;21166;-66
2021/01/02 11:57:05;;;;;;;26.25;14.28;;;;;;;10.50;49.01;100792.22;1826538;77;21185;-65
2021/01/02 11:59:33;;;;;;;25.02;14.83;;;;;;;10.45;49.05;100795.89;1820095;77;21197;-65
2021/01/02 12:02:05;;;;;;;24.40;15.70;;;;;;;10.35;49.04;100797.02;1823577;78;21186;-66
2021/01/02 12:04:33;;;;;;;24.37;14.75;;;;;;;10.34;49.72;100796.61;1825507;78;21153;-65
2021/01/02 12:07:03;;;;;;;28.12;14.35;;;;;;;10.32;49.00;100803.69;1825636;78;21565;-65
2021/01/02 12:09:31;;;;;;;24.60;13.43;;;;;;;10.19;49.47;100807.91;1783697;78;21441;-65
2021/01/02 12:11:59;;;;;;;25.12;13.70;;;;;;;9.78;49.96;100813.70;1775471;78;21170;-67
2021/01/02 12:14:30;;;;;;;25.32;15.25;;;;;;;9.45;51.06;100808.30;1733726;81;21182;-68
2021/01/02 12:16:59;;;;;;;25.37;15.35;;;;;;;9.35;51.75;100810.69;1723910;81;21187;-68
2021/01/02 12:19:30;;;;;;;29.95;16.52;;;;;;;9.30;52.30;100821.76;1725531;83;21258;-69
2021/01/02 12:22:01;;;;;;;29.40;16.55;;;;;;;9.20;53.09;100817.14;1723136;82;22635;-68
2021/01/02 12:24:28;;;;;;;29.20;16.45;;;;;;;9.28;54.13;100817.43;1725239;83;21600;-68
2021/01/02 12:26:59;;;;;;;27.60;14.65;;;;;;;9.36;53.74;100816.80;1697323;83;21146;-68
2021/01/02 12:29:29;;;;;;;25.77;14.55;;;;;;;9.34;54.42;100817.28;1692765;84;21634;-69
2021/01/02 12:32:02;;;;;;;30.88;15.90;;;;;;;9.44;55.92;100823.64;1692658;84;21175;-68
2021/01/02 12:34:32;;;;;;;35.13;18.07;;;;;;;9.38;52.88;100826.38;1717094;83;22159;-67
2021/01/02 12:37:07;;;;;;;31.40;18.15;;;;;;;9.05;53.63;100829.72;1719321;83;21218;-68
2021/01/02 12:39:36;;;;;;;32.58;17.95;;;;;;;8.84;54.49;100833.17;1699421;82;21162;-68
2021/01/02 12:42:04;;;;;;;35.75;17.82;;;;;;;8.55;54.74;100835.86;1692507;84;21240;-68
2021/01/02 12:44:32;;;;;;;40.05;19.85;;;;;;;8.48;55.70;100838.17;1692760;84;21198;-68
2021/01/02 12:47:07;;;;;;;45.33;21.75;;;;;;;8.57;56.02;100837.16;1692432;84;21213;-68
2021/01/02 12:49:43;;;;;;;34.03;18.75;;;;;;;8.61;56.26;100833.59;1846276;76;28310;-68